Time;durP1;ratioP1;P1;durP2;ratioP2;P2;SDS_P1;SDS_P2;PMS_P1;PMS_P2;Temp;Humidity;BMP_temperature;BMP_pressure;BME280_temperature;BME280_humidity;BME280_pressure;Samples;Min_cycle;Max_cycle;Signal;HPM_P1;HPM_P2
2022/05/29 00:00:07;;;;;;;13.40;2.60;;;;;;;;;;7371016;19;20003;-73
2022/05/29 00:02:32;;;;;;;11.35;2.20;;;;;;;;;;7371050;19;20735;-74
2022/05/29 00:04:57;;;;;;;11.32;2.63;;;;;;;;;;7372196;19;20009;-73
2022/05/29 00:07:22;;;;;;;11.90;2.73;;;;;;;;;;7374701;19;20670;-73
2022/05/29 00:09:48;;;;;;;13.52;2.83;;;;;;;;;;7374465;19;20231;-73
2022/05/29 00:12:14;;;;;;;11.88;2.97;;;;;;;;;;7367884;19;20019;-74
2022/05/29 00:14:39;;;;;;;8.85;2.55;;;;;;;;;;7371551;19;20022;-73
2022/05/29 00:17:05;;;;;;;11.52;2.47;;;;;;;;;;7363687;19;20362;-75
2022/05/29 00:19:30;;;;;;;13.50;2.78;;;;;;;;;;7369325;19;20006;-74
2022/05/29 00:21:56;;;;;;;12.18;3.50;;;;;;;;;;7369290;19;20014;-74
2022/05/29 00:24:21;;;;;;;11.55;3.05;;;;;;;;;;7369463;19;20009;-75
2022/05/29 00:26:46;;;;;;;20.55;4.47;;;;;;;;;;7347220;19;20423;-75
2022/05/29 00:29:12;;;;;;;9.82;2.22;;;;;;;;;;7363241;19;20010;-73
2022/05/29 00:31:37;;;;;;;14.43;3.15;;;;;;;;;;7369434;19;20442;-76
2022/05/29 00:34:03;;;;;;;11.27;2.85;;;;;;;;;;7368874;19;20526;-75
2022/05/29 00:36:31;;;;;;;15.18;3.00;;;;;;;;;;7362388;19;20035;-75
2022/05/29 00:38:56;;;;;;;12.60;3.03;;;;;;;;;;7363819;19;20089;-75
2022/05/29 00:41:26;;;;;;;10.63;2.70;;;;;;;;;;7372106;19;20070;-75
2022/05/29 00:44:10;;;;;;;11.32;2.78;;;;;;;;;;7361617;19;20031;-75
2022/05/29 00:46:35;;;;;;;9.50;2.30;;;;;;;;;;7362004;19;19994;-75
2022/05/29 00:49:07;;;;;;;9.52;2.25;;;;;;;;;;7369532;19;20013;-76
2022/05/29 00:51:37;;;;;;;13.07;2.70;;;;;;;;;;7365022;19;20436;-76
2022/05/29 00:54:03;;;;;;;9.95;2.30;;;;;;;;;;7363813;19;20499;-74
2022/05/29 00:56:28;;;;;;;11.75;3.03;;;;;;;;;;7365259;19;20498;-74
2022/05/29 00:58:56;;;;;;;11.02;2.90;;;;;;;;;;7365678;19;20022;-75
2022/05/29 01:01:21;;;;;;;7.95;2.13;;;;;;;;;;7368122;19;20019;-76
2022/05/29 01:03:47;;;;;;;9.65;2.35;;;;;;;;;;7366606;19;20482;-75
2022/05/29 01:06:12;;;;;;;13.02;2.40;;;;;;;;;;7362478;19;20087;-74
2022/05/29 01:08:38;;;;;;;17.67;2.75;;;;;;;;;;7361862;19;19998;-75
2022/05/29 01:11:03;;;;;;;10.43;2.65;;;;;;;;;;7368621;19;20018;-74
2022/05/29 01:13:37;;;;;;;9.00;2.40;;;;;;;;;;7364121;19;20010;-75
2022/05/29 01:16:08;;;;;;;10.45;2.05;;;;;;;;;;7371224;19;20457;-75
2022/05/29 01:19:06;;;;;;;10.63;2.45;;;;;;;;;;7372944;19;20018;-74
2022/05/29 01:21:48;;;;;;;12.10;2.33;;;;;;;;;;7367170;19;20014;-74
2022/05/29 01:24:21;;;;;;;12.82;2.55;;;;;;;;;;7371745;19;20011;-74
2022/05/29 01:26:58;;;;;;;11.63;2.57;;;;;;;;;;7367662;19;20339;-75
2022/05/29 01:29:32;;;;;;;9.63;2.35;;;;;;;;;;7369092;19;20505;-75
2022/05/29 01:32:02;;;;;;;14.23;2.72;;;;;;;;;;7366461;19;20022;-74
2022/05/29 01:34:36;;;;;;;12.80;3.45;;;;;;;;;;7381218;19;19995;-76
2022/05/29 01:37:08;;;;;;;12.32;2.58;;;;;;;;;;7374875;19;20018;-76
2022/05/29 01:39:35;;;;;;;11.98;2.58;;;;;;;;;;7376161;19;20003;-75
2022/05/29 01:42:07;;;;;;;9.25;2.50;;;;;;;;;;7374063;19;20019;-75
2022/05/29 01:44:41;;;;;;;8.02;2.75;;;;;;;;;;7384166;19;20007;-74
2022/05/29 01:47:19;;;;;;;9.55;2.67;;;;;;;;;;7384435;19;20015;-75
2022/05/29 01:49:48;;;;;;;17.30;2.63;;;;;;;;;;7384310;19;20098;-75
2022/05/29 01:52:22;;;;;;;10.80;3.40;;;;;;;;;;7372789;19;20029;-75
2022/05/29 01:54:50;;;;;;;12.23;2.60;;;;;;;;;;7380891;19;20013;-74
2022/05/29 01:57:17;;;;;;;14.15;3.00;;;;;;;;;;7375088;19;20035;-74
2022/05/29 01:59:52;;;;;;;11.48;3.17;;;;;;;;;;7377445;19;20022;-75
2022/05/29 02:02:21;;;;;;;11.32;3.95;;;;;;;;;;7368439;19;20015;-73
2022/05/29 02:04:48;;;;;;;13.50;3.83;;;;;;;;;;7381958;19;20056;-76
2022/05/29 02:10:07;;;;;;;14.00;3.28;;;;;;;;;;7376747;19;20010;-75
2022/05/29 02:12:34;;;;;;;9.68;3.08;;;;;;;;;;7367077;19;20015;-74
2022/05/29 02:15:06;;;;;;;15.52;3.47;;;;;;;;;;7376879;19;20029;-74
2022/05/29 02:17:38;;;;;;;10.15;3.05;;;;;;;;;;7381433;19;20014;-75
2022/05/29 02:20:05;;;;;;;10.25;3.47;;;;;;;;;;7380992;19;20066;-75
2022/05/29 02:22:32;;;;;;;12.85;4.25;;;;;;;;;;7379401;19;20018;-74
2022/05/29 02:25:06;;;;;;;12.27;3.55;;;;;;;;;;7374267;19;20018;-74
2022/05/29 02:27:31;;;;;;;;;;;;;;;;;;7367242;19;20501;-75
2022/05/29 02:29:57;;;;;;;13.00;3.70;;;;;;;;;;7378128;19;19926;-76
2022/05/29 02:32:31;;;;;;;17.02;4.07;;;;;;;;;;7376754;19;20035;-75
2022/05/29 02:35:07;;;;;;;14.30;3.40;;;;;;;;;;7382759;19;19998;-74
2022/05/29 02:37:41;;;;;;;7.57;2.60;;;;;;;;;;7368977;19;20510;-75
2022/05/29 02:40:18;;;;;;;11.95;2.67;;;;;;;;;;7376196;19;19998;-74
2022/05/29 02:42:49;;;;;;;14.23;3.50;;;;;;;;;;7373492;19;20486;-75
2022/05/29 02:45:21;;;;;;;8.13;2.47;;;;;;;;;;7378537;19;20005;-75
2022/05/29 02:48:01;;;;;;;7.15;2.72;;;;;;;;;;7380026;19;20003;-75
2022/05/29 02:50:36;;;;;;;10.55;3.40;;;;;;;;;;7370427;19;20005;-76
2022/05/29 02:53:08;;;;;;;12.02;3.30;;;;;;;;;;7376680;19;20539;-75
2022/05/29 02:55:34;;;;;;;8.98;3.00;;;;;;;;;;7365279;19;20030;-75
2022/05/29 02:58:01;;;;;;;9.68;3.15;;;;;;;;;;7372635;19;20011;-76
2022/05/29 03:00:28;;;;;;;12.13;4.90;;;;;;;;;;7368899;19;20096;-75
2022/05/29 03:02:58;;;;;;;10.85;3.45;;;;;;;;;;7375625;19;20015;-75
2022/05/29 03:05:27;;;;;;;16.35;4.57;;;;;;;;;;7373131;19;20373;-76
2022/05/29 03:07:58;;;;;;;14.82;5.43;;;;;;;;;;7378350;19;20462;-77
2022/05/29 03:10:29;;;;;;;12.15;4.85;;;;;;;;;;7377582;19;20106;-75
2022/05/29 03:13:02;;;;;;;16.02;5.50;;;;;;;;;;7377669;19;20003;-76
2022/05/29 03:15:36;;;;;;;11.35;4.45;;;;;;;;;;7377834;19;20393;-75
2022/05/29 03:18:05;;;;;;;20.17;5.95;;;;;;;;;;7381481;19;20046;-75
2022/05/29 03:20:54;;;;;;;12.38;5.25;;;;;;;;;;7373287;19;20007;-76
2022/05/29 03:23:41;;;;;;;14.20;5.80;;;;;;;;;;7375486;19;20018;-74
2022/05/29 03:26:09;;;;;;;14.52;5.03;;;;;;;;;;7377969;19;20074;-75
2022/05/29 03:28:39;;;;;;;12.40;4.25;;;;;;;;;;7375110;19;20021;-74
2022/05/29 03:31:06;;;;;;;11.52;3.53;;;;;;;;;;7376789;19;20038;-75
2022/05/29 03:33:32;;;;;;;11.57;4.78;;;;;;;;;;7376161;19;20014;-73
2022/05/29 03:35:57;;;;;;;15.55;4.63;;;;;;;;;;7370934;19;19999;-75
2022/05/29 03:38:22;;;;;;;11.20;3.80;;;;;;;;;;7375537;19;20037;-75
2022/05/29 03:40:48;;;;;;;15.50;4.72;;;;;;;;;;7377654;19;20254;-74
2022/05/29 03:43:13;;;;;;;12.73;4.50;;;;;;;;;;7373003;19;20009;-74
2022/05/29 03:45:38;;;;;;;10.07;3.95;;;;;;;;;;7378558;19;20221;-75
2022/05/29 03:48:04;;;;;;;12.52;4.07;;;;;;;;;;7379759;19;20066;-74
2022/05/29 03:50:29;;;;;;;8.13;3.17;;;;;;;;;;7374314;19;20014;-74
2022/05/29 03:52:54;;;;;;;12.45;3.55;;;;;;;;;;7371589;19;20066;-74
2022/05/29 03:55:21;;;;;;;10.82;3.30;;;;;;;;;;7374683;19;20010;-74
2022/05/29 03:57:46;;;;;;;10.38;3.28;;;;;;;;;;7369784;19;20006;-74
2022/05/29 04:00:12;;;;;;;11.25;3.53;;;;;;;;;;7379051;19;20034;-75
2022/05/29 04:02:41;;;;;;;13.30;3.28;;;;;;;;;;7375963;19;20366;-75
2022/05/29 04:05:09;;;;;;;11.02;3.67;;;;;;;;;;7374635;19;20507;-74
2022/05/29 04:13:03;;;;;;;10.00;3.22;;;;;;;;;;7367607;19;20093;-74
2022/05/29 04:15:28;;;;;;;19.02;3.35;;;;;;;;;;7371488;19;20014;-74
2022/05/29 04:17:53;;;;;;;11.77;3.97;;;;;;;;;;7372433;19;20024;-74
2022/05/29 04:20:19;;;;;;;11.00;3.92;;;;;;;;;;7371339;19;20577;-75
2022/05/29 04:22:44;;;;;;;10.60;4.15;;;;;;;;;;7375621;19;20364;-76
2022/05/29 04:25:09;;;;;;;10.00;3.42;;;;;;;;;;7375270;19;20356;-76
2022/05/29 04:27:34;;;;;;;9.40;4.18;;;;;;;;;;7365675;19;20010;-74
2022/05/29 04:30:00;;;;;;;17.00;4.87;;;;;;;;;;7374259;19;19998;-75
2022/05/29 04:35:09;;;;;;;17.50;4.97;;;;;;;;;;7370378;19;20014;-74
2022/05/29 04:37:34;;;;;;;16.50;4.82;;;;;;;;;;7369396;19;20018;-75
2022/05/29 04:39:59;;;;;;;13.53;5.33;;;;;;;;;;7372564;19;20003;-74
2022/05/29 04:42:24;;;;;;;16.85;5.30;;;;;;;;;;7370609;19;20255;-74
2022/05/29 04:44:50;;;;;;;18.60;5.40;;;;;;;;;;7374582;19;20018;-74
2022/05/29 04:47:15;;;;;;;13.32;5.45;;;;;;;;;;7373199;19;20640;-74
2022/05/29 04:49:40;;;;;;;18.45;4.75;;;;;;;;;;7370931;19;20014;-74
2022/05/29 04:52:05;;;;;;;10.90;4.37;;;;;;;;;;7369263;19;20042;-74
2022/05/29 04:54:32;;;;;;;15.63;5.85;;;;;;;;;;7368698;19;20550;-74
2022/05/29 04:56:57;;;;;;;16.27;4.63;;;;;;;;;;7369327;19;20016;-74
2022/05/29 04:59:22;;;;;;;14.30;4.63;;;;;;;;;;7366466;19;20010;-73
2022/05/29 05:01:48;;;;;;;13.53;4.70;;;;;;;;;;7369067;19;20632;-73
2022/05/29 05:04:14;;;;;;;15.95;4.15;;;;;;;;;;7370304;19;20913;-74
2022/05/29 05:06:39;;;;;;;13.07;4.70;;;;;;;;;;7370752;19;19999;-74
2022/05/29 05:09:04;;;;;;;11.17;4.03;;;;;;;;;;7376470;19;20020;-74
2022/05/29 05:11:31;;;;;;;14.17;3.60;;;;;;;;;;7378936;19;20232;-73
2022/05/29 05:13:57;;;;;;;9.55;3.47;;;;;;;;;;7362053;19;20276;-74
2022/05/29 05:16:22;;;;;;;10.68;3.58;;;;;;;;;;7379601;19;20007;-74
2022/05/29 05:18:47;;;;;;;12.43;3.90;;;;;;;;;;7386237;19;20561;-74
2022/05/29 05:21:12;;;;;;;11.00;3.57;;;;;;;;;;7376682;19;20076;-73
2022/05/29 05:23:38;;;;;;;9.75;3.47;;;;;;;;;;7377832;19;20240;-75
2022/05/29 05:26:10;;;;;;;12.48;4.20;;;;;;;;;;7376260;19;20015;-73
2022/05/29 05:28:35;;;;;;;9.82;3.10;;;;;;;;;;7360291;19;20014;-73
2022/05/29 05:31:00;;;;;;;13.13;3.80;;;;;;;;;;7358572;19;20018;-74
2022/05/29 05:33:26;;;;;;;14.35;3.80;;;;;;;;;;7381753;19;20766;-73
2022/05/29 05:35:51;;;;;;;12.05;3.75;;;;;;;;;;7373701;19;20030;-73
2022/05/29 05:38:16;;;;;;;13.00;3.43;;;;;;;;;;7383727;19;20010;-73
2022/05/29 05:40:41;;;;;;;14.07;3.63;;;;;;;;;;7368997;19;20275;-72
2022/05/29 05:43:07;;;;;;;10.23;3.47;;;;;;;;;;7358733;19;20017;-74
2022/05/29 05:45:32;;;;;;;17.40;3.67;;;;;;;;;;7379059;19;20268;-73
2022/05/29 05:47:58;;;;;;;12.30;3.50;;;;;;;;;;7386414;19;20335;-73
2022/05/29 05:50:23;;;;;;;11.60;3.65;;;;;;;;;;7378144;19;20318;-73
2022/05/29 05:52:48;;;;;;;15.03;3.73;;;;;;;;;;7375943;19;20017;-74
2022/05/29 05:55:14;;;;;;;12.50;3.42;;;;;;;;;;7367537;19;20254;-75
2022/05/29 05:57:39;;;;;;;10.52;3.33;;;;;;;;;;7359451;19;19998;-75
2022/05/29 06:00:09;;;;;;;12.98;3.30;;;;;;;;;;7376638;19;20006;-74
2022/05/29 06:02:35;;;;;;;11.52;3.60;;;;;;;;;;7381089;19;20454;-74
2022/05/29 06:05:01;;;;;;;13.02;4.75;;;;;;;;;;7370045;19;20025;-75
2022/05/29 06:07:26;;;;;;;8.30;3.13;;;;;;;;;;7380010;19;20007;-75
2022/05/29 06:09:51;;;;;;;8.35;3.60;;;;;;;;;;7371978;19;20467;-74
2022/05/29 06:12:19;;;;;;;9.77;2.83;;;;;;;;;;7361953;19;20471;-76
2022/05/29 06:14:45;;;;;;;14.43;3.95;;;;;;;;;;7380166;19;20239;-74
2022/05/29 06:17:10;;;;;;;12.30;3.40;;;;;;;;;;7381173;19;20034;-74
2022/05/29 06:19:35;;;;;;;10.90;3.00;;;;;;;;;;7371353;19;20023;-74
2022/05/29 06:22:01;;;;;;;12.10;2.90;;;;;;;;;;7380686;19;20755;-74
2022/05/29 06:24:26;;;;;;;12.85;2.95;;;;;;;;;;7365789;19;20264;-75
2022/05/29 06:26:55;;;;;;;9.95;2.60;;;;;;;;;;7365734;19;20011;-74
2022/05/29 06:29:20;;;;;;;13.55;3.22;;;;;;;;;;7377539;19;20003;-74
2022/05/29 06:31:45;;;;;;;11.80;2.70;;;;;;;;;;7381141;19;20031;-74
2022/05/29 06:34:11;;;;;;;14.27;2.50;;;;;;;;;;7376707;19;20816;-74
2022/05/29 06:36:36;;;;;;;11.02;2.35;;;;;;;;;;7373299;19;20235;-75
2022/05/29 06:39:01;;;;;;;17.20;2.83;;;;;;;;;;7354892;19;19998;-74
2022/05/29 06:41:26;;;;;;;14.35;3.72;;;;;;;;;;7373822;19;20715;-75
2022/05/29 06:43:52;;;;;;;9.25;2.70;;;;;;;;;;7378423;19;20002;-76
2022/05/29 06:46:18;;;;;;;17.45;3.03;;;;;;;;;;7381698;19;20070;-74
2022/05/29 06:48:43;;;;;;;14.50;2.72;;;;;;;;;;7379244;19;19999;-76
2022/05/29 06:51:10;;;;;;;10.55;2.22;;;;;;;;;;7370923;19;20153;-75
2022/05/29 06:53:36;;;;;;;12.35;2.53;;;;;;;;;;7362775;19;20014;-74
2022/05/29 06:56:01;;;;;;;8.57;2.17;;;;;;;;;;7376712;19;19995;-75
2022/05/29 06:58:26;;;;;;;11.20;2.53;;;;;;;;;;7374782;19;20030;-75
2022/05/29 07:09:04;;;;;;;12.63;3.45;;;;;;;;;;7361086;19;20009;-75
2022/05/29 07:11:30;;;;;;;10.45;2.67;;;;;;;;;;7372505;19;20025;-75
2022/05/29 07:13:56;;;;;;;12.35;2.50;;;;;;;;;;7373527;19;20002;-74
2022/05/29 07:16:21;;;;;;;8.93;3.10;;;;;;;;;;7381063;19;20011;-74
2022/05/29 07:18:50;;;;;;;11.68;2.28;;;;;;;;;;7379626;19;20566;-74
2022/05/29 07:21:16;;;;;;;11.23;2.65;;;;;;;;;;7367896;19;20022;-74
2022/05/29 07:23:41;;;;;;;7.93;2.50;;;;;;;;;;7361904;19;20003;-75
2022/05/29 07:26:06;;;;;;;12.77;2.35;;;;;;;;;;7379562;19;20002;-75
2022/05/29 07:28:31;;;;;;;8.20;2.10;;;;;;;;;;7374484;19;20782;-73
2022/05/29 07:30:57;;;;;;;9.77;2.37;;;;;;;;;;7379544;19;20010;-74
2022/05/29 07:33:23;;;;;;;8.15;2.22;;;;;;;;;;7379717;19;20280;-75
2022/05/29 07:35:48;;;;;;;9.30;1.98;;;;;;;;;;7373866;19;19994;-76
2022/05/29 07:38:13;;;;;;;13.05;2.05;;;;;;;;;;7354106;19;20029;-76
2022/05/29 07:40:39;;;;;;;6.93;1.80;;;;;;;;;;7378934;19;20015;-75
2022/05/29 07:43:19;;;;;;;10.30;1.77;;;;;;;;;;7378813;19;20250;-74
2022/05/29 07:45:49;;;;;;;10.63;1.88;;;;;;;;;;7379209;19;20506;-75
2022/05/29 07:48:15;;;;;;;4.28;1.40;;;;;;;;;;7377933;19;20021;-75
2022/05/29 07:50:40;;;;;;;5.93;1.85;;;;;;;;;;7378623;19;20013;-73
2022/05/29 07:53:05;;;;;;;7.50;1.40;;;;;;;;;;7370623;19;20018;-75
2022/05/29 07:55:32;;;;;;;8.13;1.70;;;;;;;;;;7370329;19;20500;-74
2022/05/29 07:57:57;;;;;;;7.75;1.80;;;;;;;;;;7370115;19;20115;-75
2022/05/29 08:00:22;;;;;;;8.30;1.80;;;;;;;;;;7375954;19;20014;-76
2022/05/29 08:02:47;;;;;;;9.05;2.08;;;;;;;;;;7377681;19;20358;-75
2022/05/29 08:05:14;;;;;;;7.47;2.13;;;;;;;;;;7371404;19;20074;-75
2022/05/29 08:07:40;;;;;;;8.27;2.05;;;;;;;;;;7368053;19;20007;-74
2022/05/29 08:10:06;;;;;;;7.93;1.95;;;;;;;;;;7363356;19;20368;-74
2022/05/29 08:12:31;;;;;;;7.90;2.33;;;;;;;;;;7368615;19;20078;-75
2022/05/29 08:14:56;;;;;;;6.88;2.30;;;;;;;;;;7368363;19;20911;-74
2022/05/29 08:17:22;;;;;;;6.72;2.03;;;;;;;;;;7368699;19;20011;-75
2022/05/29 08:19:47;;;;;;;8.20;2.35;;;;;;;;;;7373419;19;20034;-74
2022/05/29 08:22:12;;;;;;;5.93;2.03;;;;;;;;;;7369229;19;20005;-74
2022/05/29 08:30:40;;;;;;;8.63;2.00;;;;;;;;;;7377041;19;20058;-74
2022/05/29 08:33:17;;;;;;;8.95;2.70;;;;;;;;;;7363746;19;20018;-75
2022/05/29 08:35:43;;;;;;;5.20;1.88;;;;;;;;;;7374096;19;20021;-76
2022/05/29 08:38:09;;;;;;;9.55;1.98;;;;;;;;;;7364575;19;20254;-75
2022/05/29 08:40:46;;;;;;;7.25;1.50;;;;;;;;;;7372978;19;20485;-74
2022/05/29 08:43:16;;;;;;;4.90;1.60;;;;;;;;;;7373295;19;20033;-75
2022/05/29 08:45:41;;;;;;;7.85;1.75;;;;;;;;;;7378896;19;20007;-74
2022/05/29 08:48:07;;;;;;;7.00;1.88;;;;;;;;;;7376941;19;20014;-74
2022/05/29 08:50:42;;;;;;;4.88;1.83;;;;;;;;;;7381904;19;20568;-75
2022/05/29 08:53:21;;;;;;;7.20;1.40;;;;;;;;;;7379045;19;20030;-75
2022/05/29 08:55:49;;;;;;;5.68;1.40;;;;;;;;;;7382189;19;20031;-75
2022/05/29 08:58:18;;;;;;;5.00;1.60;;;;;;;;;;7374986;19;20288;-76
2022/05/29 09:00:53;;;;;;;8.25;1.75;;;;;;;;;;7379983;19;20028;-75
2022/05/29 09:03:27;;;;;;;6.38;1.58;;;;;;;;;;7378952;19;20593;-75
2022/05/29 09:05:57;;;;;;;5.53;1.85;;;;;;;;;;7382809;19;20344;-75
2022/05/29 09:08:25;;;;;;;7.03;2.00;;;;;;;;;;7378160;19;20110;-74
2022/05/29 09:10:53;;;;;;;9.88;2.78;;;;;;;;;;7379941;19;20038;-75
2022/05/29 09:13:31;;;;;;;10.57;3.50;;;;;;;;;;7380718;19;20010;-77
2022/05/29 09:15:58;;;;;;;8.27;3.00;;;;;;;;;;7385352;19;20010;-74
2022/05/29 09:18:28;;;;;;;6.57;2.78;;;;;;;;;;7382629;19;19999;-75
2022/05/29 09:20:57;;;;;;;7.38;2.17;;;;;;;;;;7380420;19;20474;-75
2022/05/29 09:23:27;;;;;;;7.90;2.00;;;;;;;;;;7384254;19;20003;-74
2022/05/29 09:25:55;;;;;;;5.72;1.70;;;;;;;;;;7379627;19;20102;-74
2022/05/29 09:28:29;;;;;;;6.88;1.92;;;;;;;;;;7383630;19;20006;-75
2022/05/29 09:31:02;;;;;;;7.25;2.08;;;;;;;;;;7378336;19;20011;-75
2022/05/29 09:33:29;;;;;;;5.13;1.58;;;;;;;;;;7384430;19;20583;-75
2022/05/29 09:35:54;;;;;;;6.47;2.20;;;;;;;;;;7383220;19;20106;-75
2022/05/29 09:38:34;;;;;;;4.50;1.63;;;;;;;;;;7382487;19;20023;-75
2022/05/29 09:41:18;;;;;;;9.93;2.00;;;;;;;;;;7383039;19;20399;-73
2022/05/29 09:44:02;;;;;;;5.72;2.08;;;;;;;;;;7380010;19;20019;-76
2022/05/29 09:46:30;;;;;;;7.57;2.38;;;;;;;;;;7383514;19;20006;-75
2022/05/29 09:51:41;;;;;;;6.25;1.67;;;;;;;;;;7384860;19;20015;-75
2022/05/29 09:54:09;;;;;;;7.18;2.00;;;;;;;;;;7381297;19;20554;-75
2022/05/29 09:56:35;;;;;;;5.22;1.80;;;;;;;;;;7378975;19;20490;-75
2022/05/29 09:59:21;;;;;;;9.30;1.92;;;;;;;;;;7381063;19;20014;-75
2022/05/29 10:01:47;;;;;;;8.38;1.85;;;;;;;;;;7380347;19;20030;-74
2022/05/29 10:04:15;;;;;;;5.63;1.80;;;;;;;;;;7379136;19;20010;-75
2022/05/29 10:06:44;;;;;;;8.95;2.35;;;;;;;;;;7377307;19;20001;-75
2022/05/29 10:09:12;;;;;;;9.10;2.75;;;;;;;;;;7375228;19;20017;-74
2022/05/29 10:11:38;;;;;;;3.45;1.38;;;;;;;;;;7383711;19;20030;-75
2022/05/29 10:14:19;;;;;;;4.88;1.75;;;;;;;;;;7374752;19;20920;-75
2022/05/29 10:16:44;;;;;;;4.90;1.20;;;;;;;;;;7368115;19;20440;-75
2022/05/29 10:19:10;;;;;;;2.80;1.25;;;;;;;;;;7366088;19;20022;-74
2022/05/29 10:21:43;;;;;;;4.07;1.30;;;;;;;;;;7369290;19;20514;-74
2022/05/29 10:24:13;;;;;;;5.75;2.08;;;;;;;;;;7368931;19;20052;-76
2022/05/29 10:26:39;;;;;;;4.25;1.25;;;;;;;;;;7381680;19;20007;-75
2022/05/29 10:29:12;;;;;;;5.45;1.40;;;;;;;;;;7368971;19;20015;-74
2022/05/29 10:31:38;;;;;;;5.05;1.73;;;;;;;;;;7373765;19;20078;-74
2022/05/29 10:34:09;;;;;;;3.40;1.27;;;;;;;;;;7371403;19;20014;-75
2022/05/29 10:36:35;;;;;;;4.43;1.20;;;;;;;;;;7377196;19;20434;-74
2022/05/29 10:39:12;;;;;;;3.78;1.48;;;;;;;;;;7367658;19;20020;-74
2022/05/29 10:41:39;;;;;;;4.85;1.30;;;;;;;;;;7372746;19;20079;-73
2022/05/29 10:44:05;;;;;;;3.90;1.42;;;;;;;;;;7375748;19;20010;-74
2022/05/29 10:46:39;;;;;;;5.40;1.52;;;;;;;;;;7377097;19;20035;-74
2022/05/29 10:49:25;;;;;;;3.08;1.00;;;;;;;;;;7374620;19;20016;-72
2022/05/29 10:52:03;;;;;;;3.53;1.48;;;;;;;;;;7379963;19;20058;-73
2022/05/29 10:54:37;;;;;;;3.80;1.20;;;;;;;;;;7379043;19;20086;-73
2022/05/29 10:57:21;;;;;;;2.88;1.05;;;;;;;;;;7376602;19;20344;-73
2022/05/29 10:59:46;;;;;;;4.75;1.10;;;;;;;;;;7378183;19;20010;-73
2022/05/29 11:05:28;;;;;;;3.10;0.93;;;;;;;;;;7377752;19;20304;-73
2022/05/29 11:07:59;;;;;;;3.85;1.00;;;;;;;;;;7371933;19;20353;-76
2022/05/29 11:10:39;;;;;;;2.55;0.90;;;;;;;;;;7378639;19;20041;-73
2022/05/29 11:13:23;;;;;;;4.72;1.30;;;;;;;;;;7373340;19;20014;-74
2022/05/29 11:16:07;;;;;;;3.88;1.20;;;;;;;;;;7376459;19;20062;-73
2022/05/29 11:18:38;;;;;;;4.35;1.00;;;;;;;;;;7376451;19;20018;-75
2022/05/29 11:21:12;;;;;;;5.00;1.17;;;;;;;;;;7374325;19;20477;-72
2022/05/29 11:23:49;;;;;;;4.50;0.90;;;;;;;;;;7374576;19;20008;-72
2022/05/29 11:26:20;;;;;;;3.78;0.82;;;;;;;;;;7377156;19;20034;-72
2022/05/29 11:29:05;;;;;;;2.22;0.70;;;;;;;;;;7371282;19;20375;-73
2022/05/29 11:31:49;;;;;;;2.30;0.80;;;;;;;;;;7371213;19;20014;-75
2022/05/29 11:34:14;;;;;;;1.35;0.45;;;;;;;;;;7368136;19;19999;-74
2022/05/29 11:36:39;;;;;;;5.03;1.00;;;;;;;;;;7377692;19;20315;-74
2022/05/29 11:39:05;;;;;;;2.55;0.70;;;;;;;;;;7375088;19;20375;-72
2022/05/29 11:41:30;;;;;;;2.33;0.70;;;;;;;;;;7374892;19;20021;-74
2022/05/29 11:44:03;;;;;;;5.57;1.07;;;;;;;;;;7373731;19;20024;-75
2022/05/29 11:52:36;;;;;;;4.13;1.90;;;;;;;;;;7371317;19;20013;-73
2022/05/29 11:55:04;;;;;;;5.68;2.25;;;;;;;;;;7376785;19;20019;-73
2022/05/29 11:57:59;;;;;;;5.70;2.15;;;;;;;;;;7377528;19;20002;-73
2022/05/29 12:00:34;;;;;;;6.18;2.40;;;;;;;;;;7373138;19;20449;-73
2022/05/29 12:03:07;;;;;;;6.57;2.50;;;;;;;;;;7372631;19;20657;-73
2022/05/29 12:05:36;;;;;;;6.15;2.60;;;;;;;;;;7368202;19;20367;-73
2022/05/29 12:08:04;;;;;;;5.57;2.40;;;;;;;;;;7373704;19;20013;-73
2022/05/29 12:10:39;;;;;;;5.65;2.72;;;;;;;;;;7378264;19;20034;-73
2022/05/29 12:13:13;;;;;;;5.43;2.70;;;;;;;;;;7375549;19;20459;-73
2022/05/29 12:15:39;;;;;;;5.55;2.60;;;;;;;;;;7375801;19;20129;-73
2022/05/29 12:18:15;;;;;;;7.18;2.50;;;;;;;;;;7373955;19;20400;-73
2022/05/29 12:20:43;;;;;;;4.50;1.70;;;;;;;;;;7374147;19;20070;-74
2022/05/29 12:23:27;;;;;;;4.30;1.73;;;;;;;;;;7370501;19;20408;-74
2022/05/29 12:26:06;;;;;;;4.28;2.03;;;;;;;;;;7378946;19;20002;-73
2022/05/29 12:28:44;;;;;;;5.25;2.40;;;;;;;;;;7372127;19;20027;-72
2022/05/29 12:31:19;;;;;;;5.75;2.33;;;;;;;;;;7373843;19;20440;-73
2022/05/29 12:33:45;;;;;;;5.75;2.22;;;;;;;;;;7371563;19;20471;-73
2022/05/29 12:36:10;;;;;;;6.97;2.47;;;;;;;;;;7366602;19;20128;-73
2022/05/29 12:38:47;;;;;;;6.50;3.20;;;;;;;;;;7372162;19;20010;-74
2022/05/29 12:41:31;;;;;;;6.40;2.85;;;;;;;;;;7376634;19;20044;-73
2022/05/29 12:43:56;;;;;;;6.77;3.27;;;;;;;;;;7369083;19;20018;-74
2022/05/29 12:46:40;;;;;;;6.60;2.90;;;;;;;;;;7375481;19;20002;-72
2022/05/29 12:49:05;;;;;;;;;;;;;;;;;;7370053;19;20018;-71
2022/05/29 12:51:39;;;;;;;5.50;3.03;;;;;;;;;;7366805;19;19922;-74
2022/05/29 12:54:16;;;;;;;6.25;2.65;;;;;;;;;;7373482;19;20014;-74
2022/05/29 12:56:50;;;;;;;6.35;2.83;;;;;;;;;;7370604;19;20019;-73
2022/05/29 12:59:28;;;;;;;5.57;2.55;;;;;;;;;;7360016;19;20007;-72
2022/05/29 13:02:12;;;;;;;8.07;2.83;;;;;;;;;;7365693;19;20257;-73
2022/05/29 13:04:46;;;;;;;5.55;2.13;;;;;;;;;;7375075;19;20509;-73
2022/05/29 13:07:11;;;;;;;6.95;2.42;;;;;;;;;;7371398;19;20031;-74
2022/05/29 13:09:56;;;;;;;6.50;2.25;;;;;;;;;;7350082;19;20014;-73
2022/05/29 13:12:27;;;;;;;5.35;2.40;;;;;;;;;;7370425;19;20541;-74
